sensor_id;sensor_type;location;lat;lon;timestamp;temperature;humidity
12119;DHT22;6123;48.864;9.200;2022-08-21T00:01:15;16.30;99.90
12119;DHT22;6123;48.864;9.200;2022-08-21T00:03:42;16.40;99.90
12119;DHT22;6123;48.864;9.200;2022-08-21T00:06:08;16.50;99.90
12119;DHT22;6123;48.864;9.200;2022-08-21T00:08:36;16.60;99.90
12119;DHT22;6123;48.864;9.200;2022-08-21T00:11:03;16.60;99.90
12119;DHT22;6123;48.864;9.200;2022-08-21T00:13:29;16.60;99.90
12119;DHT22;6123;48.864;9.200;2022-08-21T00:15:54;17.00;99.90
12119;DHT22;6123;48.864;9.200;2022-08-21T00:18:20;17.00;99.90
12119;DHT22;6123;48.864;9.200;2022-08-21T00:20:47;17.10;99.90
12119;DHT22;6123;48.864;9.200;2022-08-21T00:23:14;17.10;99.90
12119;DHT22;6123;48.864;9.200;2022-08-21T00:25:41;17.00;99.90
12119;DHT22;6123;48.864;9.200;2022-08-21T00:28:07;17.00;99.90
12119;DHT22;6123;48.864;9.200;2022-08-21T00:30:36;16.80;99.90
12119;DHT22;6123;48.864;9.200;2022-08-21T00:33:03;16.70;99.90
12119;DHT22;6123;48.864;9.200;2022-08-21T00:35:32;16.60;99.90
12119;DHT22;6123;48.864;9.200;2022-08-21T00:37:58;16.60;99.90
12119;DHT22;6123;48.864;9.200;2022-08-21T00:40:32;16.50;99.90
12119;DHT22;6123;48.864;9.200;2022-08-21T00:42:58;16.50;99.90
12119;DHT22;6123;48.864;9.200;2022-08-21T00:45:26;16.50;99.90
12119;DHT22;6123;48.864;9.200;2022-08-21T00:47:56;16.40;99.90
12119;DHT22;6123;48.864;9.200;2022-08-21T00:50:23;16.30;99.90
12119;DHT22;6123;48.864;9.200;2022-08-21T00:52:54;16.30;99.90
12119;DHT22;6123;48.864;9.200;2022-08-21T00:55:21;16.00;99.90
12119;DHT22;6123;48.864;9.200;2022-08-21T00:57:52;16.10;99.90
12119;DHT22;6123;48.864;9.200;2022-08-21T01:00:22;16.00;99.90
12119;DHT22;6123;48.864;9.200;2022-08-21T01:02:49;16.00;99.90
12119;DHT22;6123;48.864;9.200;2022-08-21T01:05:15;16.00;99.90
12119;DHT22;6123;48.864;9.200;2022-08-21T01:07:42;16.00;99.90
12119;DHT22;6123;48.864;9.200;2022-08-21T01:10:08;16.00;99.90
12119;DHT22;6123;48.864;9.200;2022-08-21T01:12:34;15.80;99.90
12119;DHT22;6123;48.864;9.200;2022-08-21T01:15:05;15.70;99.90
12119;DHT22;6123;48.864;9.200;2022-08-21T01:17:32;15.70;99.90
12119;DHT22;6123;48.864;9.200;2022-08-21T01:19:59;15.70;99.90
12119;DHT22;6123;48.864;9.200;2022-08-21T01:22:26;15.70;99.90
12119;DHT22;6123;48.864;9.200;2022-08-21T01:24:54;15.70;99.90
12119;DHT22;6123;48.864;9.200;2022-08-21T01:27:20;15.80;99.90
12119;DHT22;6123;48.864;9.200;2022-08-21T01:29:59;15.70;99.90
12119;DHT22;6123;48.864;9.200;2022-08-21T01:32:27;15.80;99.90
12119;DHT22;6123;48.864;9.200;2022-08-21T01:34:53;15.70;99.90
12119;DHT22;6123;48.864;9.200;2022-08-21T01:37:20;15.80;99.90
12119;DHT22;6123;48.864;9.200;2022-08-21T01:39:47;15.70;99.90
12119;DHT22;6123;48.864;9.200;2022-08-21T01:42:13;15.70;99.90
12119;DHT22;6123;48.864;9.200;2022-08-21T01:44:41;15.70;99.90
12119;DHT22;6123;48.864;9.200;2022-08-21T01:47:09;15.70;99.90
12119;DHT22;6123;48.864;9.200;2022-08-21T01:49:36;15.70;99.90
12119;DHT22;6123;48.864;9.200;2022-08-21T01:52:03;15.70;99.90
12119;DHT22;6123;48.864;9.200;2022-08-21T01:54:29;15.70;99.90
12119;DHT22;6123;48.864;9.200;2022-08-21T01:56:58;15.70;99.90
12119;DHT22;6123;48.864;9.200;2022-08-21T01:59:25;15.50;99.90
12119;DHT22;6123;48.864;9.200;2022-08-21T02:01:51;15.40;99.90
12119;DHT22;6123;48.864;9.200;2022-08-21T02:04:19;15.30;99.90
12119;DHT22;6123;48.864;9.200;2022-08-21T02:06:46;15.20;99.90
12119;DHT22;6123;48.864;9.200;2022-08-21T02:09:13;15.30;99.90
12119;DHT22;6123;48.864;9.200;2022-08-21T02:11:40;15.30;99.90
12119;DHT22;6123;48.864;9.200;2022-08-21T02:14:15;15.30;99.90
12119;DHT22;6123;48.864;9.200;2022-08-21T02:16:44;15.30;99.90
12119;DHT22;6123;48.864;9.200;2022-08-21T02:19:12;15.10;99.90
12119;DHT22;6123;48.864;9.200;2022-08-21T02:21:39;15.00;99.90
12119;DHT22;6123;48.864;9.200;2022-08-21T02:24:07;15.00;99.90
12119;DHT22;6123;48.864;9.200;2022-08-21T02:26:34;15.00;99.90
12119;DHT22;6123;48.864;9.200;2022-08-21T02:29:00;15.00;99.90
12119;DHT22;6123;48.864;9.200;2022-08-21T02:31:26;15.00;99.90
12119;DHT22;6123;48.864;9.200;2022-08-21T02:33:52;14.90;99.90
12119;DHT22;6123;48.864;9.200;2022-08-21T02:36:17;14.90;99.90
12119;DHT22;6123;48.864;9.200;2022-08-21T02:38:43;14.80;99.90
12119;DHT22;6123;48.864;9.200;2022-08-21T02:41:13;14.80;99.90
12119;DHT22;6123;48.864;9.200;2022-08-21T02:43:39;14.80;99.90
12119;DHT22;6123;48.864;9.200;2022-08-21T02:46:09;14.80;99.90
12119;DHT22;6123;48.864;9.200;2022-08-21T02:48:35;14.70;99.90
12119;DHT22;6123;48.864;9.200;2022-08-21T02:51:04;14.60;99.90
12119;DHT22;6123;48.864;9.200;2022-08-21T02:53:30;14.60;99.90
12119;DHT22;6123;48.864;9.200;2022-08-21T02:55:59;14.70;99.90
12119;DHT22;6123;48.864;9.200;2022-08-21T02:58:28;14.50;99.90
12119;DHT22;6123;48.864;9.200;2022-08-21T03:00:56;14.60;99.90
12119;DHT22;6123;48.864;9.200;2022-08-21T03:03:24;14.70;99.90
12119;DHT22;6123;48.864;9.200;2022-08-21T03:05:50;14.50;99.90
12119;DHT22;6123;48.864;9.200;2022-08-21T03:08:16;14.40;99.90
12119;DHT22;6123;48.864;9.200;2022-08-21T03:10:48;14.40;99.90
12119;DHT22;6123;48.864;9.200;2022-08-21T03:13:18;14.40;99.90
12119;DHT22;6123;48.864;9.200;2022-08-21T03:15:47;14.40;99.90
12119;DHT22;6123;48.864;9.200;2022-08-21T03:18:13;14.40;99.90
12119;DHT22;6123;48.864;9.200;2022-08-21T03:20:42;14.40;99.90
12119;DHT22;6123;48.864;9.200;2022-08-21T03:23:10;14.50;99.90
12119;DHT22;6123;48.864;9.200;2022-08-21T03:25:36;15.10;99.90
12119;DHT22;6123;48.864;9.200;2022-08-21T03:28:05;14.50;99.90
12119;DHT22;6123;48.864;9.200;2022-08-21T03:30:31;14.40;99.90
12119;DHT22;6123;48.864;9.200;2022-08-21T03:33:00;14.40;99.90
12119;DHT22;6123;48.864;9.200;2022-08-21T03:35:27;14.40;99.90
12119;DHT22;6123;48.864;9.200;2022-08-21T03:37:56;14.40;99.90
12119;DHT22;6123;48.864;9.200;2022-08-21T03:40:22;14.30;99.90
12119;DHT22;6123;48.864;9.200;2022-08-21T03:42:49;14.30;99.90
12119;DHT22;6123;48.864;9.200;2022-08-21T03:45:17;15.00;99.90
12119;DHT22;6123;48.864;9.200;2022-08-21T03:47:58;14.10;99.90
12119;DHT22;6123;48.864;9.200;2022-08-21T03:50:26;14.10;99.90
12119;DHT22;6123;48.864;9.200;2022-08-21T03:52:52;14.20;99.90
12119;DHT22;6123;48.864;9.200;2022-08-21T03:55:18;14.30;99.90
12119;DHT22;6123;48.864;9.200;2022-08-21T03:57:43;14.30;99.90
12119;DHT22;6123;48.864;9.200;2022-08-21T04:00:11;14.20;99.90
12119;DHT22;6123;48.864;9.200;2022-08-21T04:02:38;14.20;99.90
12119;DHT22;6123;48.864;9.200;2022-08-21T04:05:05;14.30;99.90
12119;DHT22;6123;48.864;9.200;2022-08-21T04:07:30;14.10;99.90
12119;DHT22;6123;48.864;9.200;2022-08-21T04:09:58;14.10;99.90
12119;DHT22;6123;48.864;9.200;2022-08-21T04:12:24;14.10;99.90
12119;DHT22;6123;48.864;9.200;2022-08-21T04:14:52;14.10;99.90
12119;DHT22;6123;48.864;9.200;2022-08-21T04:17:20;14.20;99.90
12119;DHT22;6123;48.864;9.200;2022-08-21T04:19:46;14.00;99.90
12119;DHT22;6123;48.864;9.200;2022-08-21T04:22:11;14.00;99.90
12119;DHT22;6123;48.864;9.200;2022-08-21T04:24:37;14.00;99.90
12119;DHT22;6123;48.864;9.200;2022-08-21T04:27:03;14.10;99.90
12119;DHT22;6123;48.864;9.200;2022-08-21T04:29:28;14.10;99.90
12119;DHT22;6123;48.864;9.200;2022-08-21T04:31:56;13.90;99.90
12119;DHT22;6123;48.864;9.200;2022-08-21T04:34:22;13.70;99.90
12119;DHT22;6123;48.864;9.200;2022-08-21T04:36:47;13.90;99.90
12119;DHT22;6123;48.864;9.200;2022-08-21T04:39:15;13.80;99.90
12119;DHT22;6123;48.864;9.200;2022-08-21T04:41:41;13.90;99.90
12119;DHT22;6123;48.864;9.200;2022-08-21T04:44:06;14.00;99.90
12119;DHT22;6123;48.864;9.200;2022-08-21T04:46:34;14.10;99.90
12119;DHT22;6123;48.864;9.200;2022-08-21T04:48:59;14.20;99.90
12119;DHT22;6123;48.864;9.200;2022-08-21T04:51:29;14.40;99.90
12119;DHT22;6123;48.864;9.200;2022-08-21T04:56:41;14.20;99.90
12119;DHT22;6123;48.864;9.200;2022-08-21T04:59:17;14.20;99.90
12119;DHT22;6123;48.864;9.200;2022-08-21T05:01:45;14.30;99.90
12119;DHT22;6123;48.864;9.200;2022-08-21T05:04:14;14.40;99.90
12119;DHT22;6123;48.864;9.200;2022-08-21T05:06:42;14.60;99.90
12119;DHT22;6123;48.864;9.200;2022-08-21T05:09:09;14.70;99.90
12119;DHT22;6123;48.864;9.200;2022-08-21T05:11:38;14.70;99.90
12119;DHT22;6123;48.864;9.200;2022-08-21T05:14:03;14.80;99.90
12119;DHT22;6123;48.864;9.200;2022-08-21T05:16:29;14.90;99.90
12119;DHT22;6123;48.864;9.200;2022-08-21T05:18:59;14.80;99.90
12119;DHT22;6123;48.864;9.200;2022-08-21T05:21:25;14.90;99.90
12119;DHT22;6123;48.864;9.200;2022-08-21T05:23:51;15.10;99.90
12119;DHT22;6123;48.864;9.200;2022-08-21T05:26:16;15.10;99.90
12119;DHT22;6123;48.864;9.200;2022-08-21T05:28:42;15.00;99.90
12119;DHT22;6123;48.864;9.200;2022-08-21T05:31:08;15.00;99.90
12119;DHT22;6123;48.864;9.200;2022-08-21T05:33:33;15.00;99.90
12119;DHT22;6123;48.864;9.200;2022-08-21T05:35:59;15.00;99.90
12119;DHT22;6123;48.864;9.200;2022-08-21T05:38:26;15.00;99.90
12119;DHT22;6123;48.864;9.200;2022-08-21T05:40:53;15.10;99.90
12119;DHT22;6123;48.864;9.200;2022-08-21T05:43:19;15.30;99.90
12119;DHT22;6123;48.864;9.200;2022-08-21T05:45:45;15.40;99.90
12119;DHT22;6123;48.864;9.200;2022-08-21T05:48:17;15.30;99.90
12119;DHT22;6123;48.864;9.200;2022-08-21T05:50:44;15.40;99.90
12119;DHT22;6123;48.864;9.200;2022-08-21T05:53:11;15.40;99.90
12119;DHT22;6123;48.864;9.200;2022-08-21T05:55:40;15.50;99.90
12119;DHT22;6123;48.864;9.200;2022-08-21T05:58:06;15.60;99.90
12119;DHT22;6123;48.864;9.200;2022-08-21T06:00:32;15.60;99.90
12119;DHT22;6123;48.864;9.200;2022-08-21T06:02:59;15.60;99.90
12119;DHT22;6123;48.864;9.200;2022-08-21T06:05:27;15.80;99.90
12119;DHT22;6123;48.864;9.200;2022-08-21T06:07:55;15.90;99.90
12119;DHT22;6123;48.864;9.200;2022-08-21T06:10:21;15.90;99.90
12119;DHT22;6123;48.864;9.200;2022-08-21T06:12:47;15.90;99.90
12119;DHT22;6123;48.864;9.200;2022-08-21T06:15:17;16.10;99.90
12119;DHT22;6123;48.864;9.200;2022-08-21T06:20:09;16.20;99.90
12119;DHT22;6123;48.864;9.200;2022-08-21T06:22:35;16.40;99.90
12119;DHT22;6123;48.864;9.200;2022-08-21T06:25:03;16.40;99.90
12119;DHT22;6123;48.864;9.200;2022-08-21T06:27:29;16.60;99.90
12119;DHT22;6123;48.864;9.200;2022-08-21T06:29:55;16.60;99.90
12119;DHT22;6123;48.864;9.200;2022-08-21T06:32:23;16.70;99.90
12119;DHT22;6123;48.864;9.200;2022-08-21T06:34:51;16.90;99.90
12119;DHT22;6123;48.864;9.200;2022-08-21T06:37:16;16.90;99.90
12119;DHT22;6123;48.864;9.200;2022-08-21T06:39:42;17.00;99.90
12119;DHT22;6123;48.864;9.200;2022-08-21T06:42:15;17.10;99.90
12119;DHT22;6123;48.864;9.200;2022-08-21T06:44:44;17.20;99.90
12119;DHT22;6123;48.864;9.200;2022-08-21T06:47:10;17.30;99.90
12119;DHT22;6123;48.864;9.200;2022-08-21T06:49:36;17.40;99.90
12119;DHT22;6123;48.864;9.200;2022-08-21T06:52:02;17.50;99.90
12119;DHT22;6123;48.864;9.200;2022-08-21T06:54:28;17.50;99.90
12119;DHT22;6123;48.864;9.200;2022-08-21T06:56:56;17.70;99.90
12119;DHT22;6123;48.864;9.200;2022-08-21T06:59:21;18.00;99.90
12119;DHT22;6123;48.864;9.200;2022-08-21T07:01:47;18.10;99.90
12119;DHT22;6123;48.864;9.200;2022-08-21T07:04:13;18.40;99.90
12119;DHT22;6123;48.864;9.200;2022-08-21T07:06:38;18.60;99.90
12119;DHT22;6123;48.864;9.200;2022-08-21T07:09:06;18.70;99.90
12119;DHT22;6123;48.864;9.200;2022-08-21T07:11:36;18.80;99.90
12119;DHT22;6123;48.864;9.200;2022-08-21T07:14:02;18.70;99.90
12119;DHT22;6123;48.864;9.200;2022-08-21T07:16:30;19.10;99.90
12119;DHT22;6123;48.864;9.200;2022-08-21T07:18:56;19.30;99.90
12119;DHT22;6123;48.864;9.200;2022-08-21T07:21:24;19.30;99.90
12119;DHT22;6123;48.864;9.200;2022-08-21T07:23:52;19.20;99.90
12119;DHT22;6123;48.864;9.200;2022-08-21T07:26:22;19.50;99.90
12119;DHT22;6123;48.864;9.200;2022-08-21T07:28:49;19.60;99.90
12119;DHT22;6123;48.864;9.200;2022-08-21T07:31:19;19.80;99.90
12119;DHT22;6123;48.864;9.200;2022-08-21T07:33:47;19.70;99.90
12119;DHT22;6123;48.864;9.200;2022-08-21T07:36:13;19.90;99.90
12119;DHT22;6123;48.864;9.200;2022-08-21T07:38:39;20.00;99.90
12119;DHT22;6123;48.864;9.200;2022-08-21T07:41:24;20.10;99.90
12119;DHT22;6123;48.864;9.200;2022-08-21T07:43:54;20.20;99.90
12119;DHT22;6123;48.864;9.200;2022-08-21T07:46:20;20.40;99.90
12119;DHT22;6123;48.864;9.200;2022-08-21T07:48:46;20.50;99.90
12119;DHT22;6123;48.864;9.200;2022-08-21T07:51:14;20.60;99.90
12119;DHT22;6123;48.864;9.200;2022-08-21T07:53:40;20.30;99.90
12119;DHT22;6123;48.864;9.200;2022-08-21T07:56:07;20.40;99.90
12119;DHT22;6123;48.864;9.200;2022-08-21T07:58:36;20.60;99.90
12119;DHT22;6123;48.864;9.200;2022-08-21T08:01:01;20.80;99.90
12119;DHT22;6123;48.864;9.200;2022-08-21T08:03:27;20.50;99.90
12119;DHT22;6123;48.864;9.200;2022-08-21T08:05:53;20.70;99.90
12119;DHT22;6123;48.864;9.200;2022-08-21T08:08:21;20.90;99.90
12119;DHT22;6123;48.864;9.200;2022-08-21T08:10:46;21.00;99.90
12119;DHT22;6123;48.864;9.200;2022-08-21T08:13:12;21.20;99.90
12119;DHT22;6123;48.864;9.200;2022-08-21T08:15:38;21.40;99.90
12119;DHT22;6123;48.864;9.200;2022-08-21T08:18:03;21.30;99.90
12119;DHT22;6123;48.864;9.200;2022-08-21T08:20:32;21.40;99.90
12119;DHT22;6123;48.864;9.200;2022-08-21T08:22:58;21.70;99.90
12119;DHT22;6123;48.864;9.200;2022-08-21T08:25:25;21.80;99.90
12119;DHT22;6123;48.864;9.200;2022-08-21T08:27:54;21.70;99.90
12119;DHT22;6123;48.864;9.200;2022-08-21T08:30:20;21.70;99.90
12119;DHT22;6123;48.864;9.200;2022-08-21T08:32:47;21.60;99.90
12119;DHT22;6123;48.864;9.200;2022-08-21T08:35:14;21.80;99.90
12119;DHT22;6123;48.864;9.200;2022-08-21T08:37:40;21.70;99.90
12119;DHT22;6123;48.864;9.200;2022-08-21T08:40:11;22.30;99.90
12119;DHT22;6123;48.864;9.200;2022-08-21T08:42:37;22.40;99.90
12119;DHT22;6123;48.864;9.200;2022-08-21T08:45:16;22.40;99.90
12119;DHT22;6123;48.864;9.200;2022-08-21T08:47:48;22.60;99.90
12119;DHT22;6123;48.864;9.200;2022-08-21T08:50:38;22.70;99.90
12119;DHT22;6123;48.864;9.200;2022-08-21T08:53:07;22.90;99.90
12119;DHT22;6123;48.864;9.200;2022-08-21T08:55:37;22.90;99.90
12119;DHT22;6123;48.864;9.200;2022-08-21T08:58:09;22.80;99.90
12119;DHT22;6123;48.864;9.200;2022-08-21T09:00:38;22.80;99.90
12119;DHT22;6123;48.864;9.200;2022-08-21T09:03:06;22.40;99.90
12119;DHT22;6123;48.864;9.200;2022-08-21T09:16:53;23.10;99.90
12119;DHT22;6123;48.864;9.200;2022-08-21T09:27:19;23.90;99.90
12119;DHT22;6123;48.864;9.200;2022-08-21T09:29:47;23.60;99.90
12119;DHT22;6123;48.864;9.200;2022-08-21T09:32:27;23.40;99.90
12119;DHT22;6123;48.864;9.200;2022-08-21T09:37:31;24.00;99.90
12119;DHT22;6123;48.864;9.200;2022-08-21T09:39:58;23.90;99.90
12119;DHT22;6123;48.864;9.200;2022-08-21T09:42:31;23.40;99.90
12119;DHT22;6123;48.864;9.200;2022-08-21T09:45:12;23.70;99.90
12119;DHT22;6123;48.864;9.200;2022-08-21T09:47:40;24.10;99.90
12119;DHT22;6123;48.864;9.200;2022-08-21T09:50:26;24.40;99.90
12119;DHT22;6123;48.864;9.200;2022-08-21T09:52:58;24.60;99.90
12119;DHT22;6123;48.864;9.200;2022-08-21T09:55:39;24.80;99.90
12119;DHT22;6123;48.864;9.200;2022-08-21T09:58:49;25.20;99.90
12119;DHT22;6123;48.864;9.200;2022-08-21T10:01:23;25.00;99.90
12119;DHT22;6123;48.864;9.200;2022-08-21T10:04:09;25.20;99.90
12119;DHT22;6123;48.864;9.200;2022-08-21T10:06:35;25.20;99.90
12119;DHT22;6123;48.864;9.200;2022-08-21T10:09:11;24.40;99.90
12119;DHT22;6123;48.864;9.200;2022-08-21T10:11:39;24.20;99.90
12119;DHT22;6123;48.864;9.200;2022-08-21T10:27:56;24.70;99.90
12119;DHT22;6123;48.864;9.200;2022-08-21T10:30:20;25.30;99.90
12119;DHT22;6123;48.864;9.200;2022-08-21T10:32:52;25.50;99.90
12119;DHT22;6123;48.864;9.200;2022-08-21T10:35:39;25.40;98.70
12119;DHT22;6123;48.864;9.200;2022-08-21T10:38:49;25.40;99.10
12119;DHT22;6123;48.864;9.200;2022-08-21T10:46:52;25.80;99.40
12119;DHT22;6123;48.864;9.200;2022-08-21T10:52:28;26.20;99.10
12119;DHT22;6123;48.864;9.200;2022-08-21T10:55:10;26.30;97.70
12119;DHT22;6123;48.864;9.200;2022-08-21T10:57:57;26.50;98.70
12119;DHT22;6123;48.864;9.200;2022-08-21T11:00:29;26.70;99.70
12119;DHT22;6123;48.864;9.200;2022-08-21T11:03:05;27.00;99.10
12119;DHT22;6123;48.864;9.200;2022-08-21T11:05:51;26.80;98.80
12119;DHT22;6123;48.864;9.200;2022-08-21T11:08:36;26.90;98.30
12119;DHT22;6123;48.864;9.200;2022-08-21T11:13:49;27.30;98.30
12119;DHT22;6123;48.864;9.200;2022-08-21T11:16:31;27.90;96.60
12119;DHT22;6123;48.864;9.200;2022-08-21T11:21:52;27.60;97.40
12119;DHT22;6123;48.864;9.200;2022-08-21T11:24:41;28.10;96.50
12119;DHT22;6123;48.864;9.200;2022-08-21T11:27:28;27.60;95.10
12119;DHT22;6123;48.864;9.200;2022-08-21T11:29:58;27.80;94.90
12119;DHT22;6123;48.864;9.200;2022-08-21T11:40:51;28.70;90.80
12119;DHT22;6123;48.864;9.200;2022-08-21T11:43:39;29.60;90.40
12119;DHT22;6123;48.864;9.200;2022-08-21T11:51:36;28.50;85.70
12119;DHT22;6123;48.864;9.200;2022-08-21T11:54:16;28.00;88.30
12119;DHT22;6123;48.864;9.200;2022-08-21T11:57:11;28.50;86.70
12119;DHT22;6123;48.864;9.200;2022-08-21T11:59:46;28.40;85.00
12119;DHT22;6123;48.864;9.200;2022-08-21T12:02:17;28.70;83.20
12119;DHT22;6123;48.864;9.200;2022-08-21T12:04:48;28.80;82.60
12119;DHT22;6123;48.864;9.200;2022-08-21T12:10:10;28.60;82.80
12119;DHT22;6123;48.864;9.200;2022-08-21T12:12:40;28.60;81.60
12119;DHT22;6123;48.864;9.200;2022-08-21T12:23:31;27.40;84.50
12119;DHT22;6123;48.864;9.200;2022-08-21T12:26:47;26.90;85.60
12119;DHT22;6123;48.864;9.200;2022-08-21T12:28:48;27.60;84.20
12119;DHT22;6123;48.864;9.200;2022-08-21T12:31:24;27.50;84.10
12119;DHT22;6123;48.864;9.200;2022-08-21T12:33:54;28.30;85.00
12119;DHT22;6123;48.864;9.200;2022-08-21T12:36:23;29.20;84.30
12119;DHT22;6123;48.864;9.200;2022-08-21T12:39:01;29.60;83.60
12119;DHT22;6123;48.864;9.200;2022-08-21T12:41:32;30.30;83.60
12119;DHT22;6123;48.864;9.200;2022-08-21T12:44:09;30.00;82.00
12119;DHT22;6123;48.864;9.200;2022-08-21T12:46:58;30.30;80.60
12119;DHT22;6123;48.864;9.200;2022-08-21T12:49:47;30.20;80.20
12119;DHT22;6123;48.864;9.200;2022-08-21T12:52:21;30.30;79.60
12119;DHT22;6123;48.864;9.200;2022-08-21T12:54:47;30.40;78.20
12119;DHT22;6123;48.864;9.200;2022-08-21T12:57:26;30.40;76.70
12119;DHT22;6123;48.864;9.200;2022-08-21T12:59:57;30.50;75.30
12119;DHT22;6123;48.864;9.200;2022-08-21T13:02:35;30.00;77.80
12119;DHT22;6123;48.864;9.200;2022-08-21T13:05:06;30.60;78.50
12119;DHT22;6123;48.864;9.200;2022-08-21T13:07:35;30.80;78.10
12119;DHT22;6123;48.864;9.200;2022-08-21T13:10:12;30.60;77.00
12119;DHT22;6123;48.864;9.200;2022-08-21T13:12:42;30.10;77.90
12119;DHT22;6123;48.864;9.200;2022-08-21T13:15:11;30.30;76.90
12119;DHT22;6123;48.864;9.200;2022-08-21T13:17:41;30.50;76.20
12119;DHT22;6123;48.864;9.200;2022-08-21T13:20:32;30.70;74.50
12119;DHT22;6123;48.864;9.200;2022-08-21T13:23:01;30.80;75.00
12119;DHT22;6123;48.864;9.200;2022-08-21T13:25:30;30.60;74.00
12119;DHT22;6123;48.864;9.200;2022-08-21T13:28:10;30.50;74.60
12119;DHT22;6123;48.864;9.200;2022-08-21T13:30:43;30.70;73.80
12119;DHT22;6123;48.864;9.200;2022-08-21T13:33:13;31.20;72.50
12119;DHT22;6123;48.864;9.200;2022-08-21T13:38:17;31.70;71.10
12119;DHT22;6123;48.864;9.200;2022-08-21T13:40:51;31.80;69.20
12119;DHT22;6123;48.864;9.200;2022-08-21T13:43:20;31.90;70.00
12119;DHT22;6123;48.864;9.200;2022-08-21T13:45:50;32.10;67.90
12119;DHT22;6123;48.864;9.200;2022-08-21T13:48:16;31.40;67.00
12119;DHT22;6123;48.864;9.200;2022-08-21T13:50:42;31.20;66.50
12119;DHT22;6123;48.864;9.200;2022-08-21T13:53:28;31.50;67.70
12119;DHT22;6123;48.864;9.200;2022-08-21T13:55:54;32.10;67.60
12119;DHT22;6123;48.864;9.200;2022-08-21T14:01:22;32.10;65.90
12119;DHT22;6123;48.864;9.200;2022-08-21T14:03:49;31.80;63.50
12119;DHT22;6123;48.864;9.200;2022-08-21T14:06:21;31.70;63.70
12119;DHT22;6123;48.864;9.200;2022-08-21T14:08:53;31.50;65.50
12119;DHT22;6123;48.864;9.200;2022-08-21T14:11:20;32.10;66.50
12119;DHT22;6123;48.864;9.200;2022-08-21T14:13:55;32.20;64.10
12119;DHT22;6123;48.864;9.200;2022-08-21T14:16:28;32.30;62.60
12119;DHT22;6123;48.864;9.200;2022-08-21T14:19:18;31.50;63.20
12119;DHT22;6123;48.864;9.200;2022-08-21T14:21:46;31.50;63.60
12119;DHT22;6123;48.864;9.200;2022-08-21T14:24:27;32.10;63.70
12119;DHT22;6123;48.864;9.200;2022-08-21T14:27:01;32.70;63.40
12119;DHT22;6123;48.864;9.200;2022-08-21T14:29:38;32.90;61.70
12119;DHT22;6123;48.864;9.200;2022-08-21T14:32:27;32.80;62.50
12119;DHT22;6123;48.864;9.200;2022-08-21T14:34:55;32.50;61.40
12119;DHT22;6123;48.864;9.200;2022-08-21T14:37:22;32.20;62.30
12119;DHT22;6123;48.864;9.200;2022-08-21T14:39:48;32.20;62.50
12119;DHT22;6123;48.864;9.200;2022-08-21T14:42:17;32.40;62.90
12119;DHT22;6123;48.864;9.200;2022-08-21T14:44:43;32.30;60.40
12119;DHT22;6123;48.864;9.200;2022-08-21T14:47:12;31.70;61.70
12119;DHT22;6123;48.864;9.200;2022-08-21T14:49:40;32.30;61.80
12119;DHT22;6123;48.864;9.200;2022-08-21T14:52:05;33.80;61.90
12119;DHT22;6123;48.864;9.200;2022-08-21T14:54:32;32.60;61.60
12119;DHT22;6123;48.864;9.200;2022-08-21T14:57:02;32.50;60.00
12119;DHT22;6123;48.864;9.200;2022-08-21T14:59:29;32.40;59.50
12119;DHT22;6123;48.864;9.200;2022-08-21T15:01:55;32.20;59.10
12119;DHT22;6123;48.864;9.200;2022-08-21T15:04:24;32.70;60.50
12119;DHT22;6123;48.864;9.200;2022-08-21T15:06:49;32.80;59.20
12119;DHT22;6123;48.864;9.200;2022-08-21T15:09:15;32.80;59.80
12119;DHT22;6123;48.864;9.200;2022-08-21T15:11:43;32.90;59.10
12119;DHT22;6123;48.864;9.200;2022-08-21T15:14:24;32.70;59.20
12119;DHT22;6123;48.864;9.200;2022-08-21T15:16:50;33.10;58.80
12119;DHT22;6123;48.864;9.200;2022-08-21T15:19:16;33.00;57.90
12119;DHT22;6123;48.864;9.200;2022-08-21T15:21:42;32.80;58.60
12119;DHT22;6123;48.864;9.200;2022-08-21T15:24:08;33.10;58.30
12119;DHT22;6123;48.864;9.200;2022-08-21T15:26:35;32.60;57.60
12119;DHT22;6123;48.864;9.200;2022-08-21T15:29:03;32.70;58.70
12119;DHT22;6123;48.864;9.200;2022-08-21T15:31:33;32.50;58.20
12119;DHT22;6123;48.864;9.200;2022-08-21T15:34:02;32.40;59.00
12119;DHT22;6123;48.864;9.200;2022-08-21T15:36:27;32.70;59.30
12119;DHT22;6123;48.864;9.200;2022-08-21T15:38:55;33.00;57.40
12119;DHT22;6123;48.864;9.200;2022-08-21T15:41:21;32.90;58.20
12119;DHT22;6123;48.864;9.200;2022-08-21T15:43:51;33.10;58.30
12119;DHT22;6123;48.864;9.200;2022-08-21T15:46:19;33.10;58.00
12119;DHT22;6123;48.864;9.200;2022-08-21T15:48:45;32.60;57.30
12119;DHT22;6123;48.864;9.200;2022-08-21T15:51:15;32.70;56.10
12119;DHT22;6123;48.864;9.200;2022-08-21T15:53:41;32.30;56.40
12119;DHT22;6123;48.864;9.200;2022-08-21T15:58:42;32.90;57.20
12119;DHT22;6123;48.864;9.200;2022-08-21T16:01:08;32.60;57.50
12119;DHT22;6123;48.864;9.200;2022-08-21T16:03:34;31.80;57.70
12119;DHT22;6123;48.864;9.200;2022-08-21T16:05:59;31.60;58.00
12119;DHT22;6123;48.864;9.200;2022-08-21T16:08:25;31.30;59.30
12119;DHT22;6123;48.864;9.200;2022-08-21T16:10:52;31.40;58.50
12119;DHT22;6123;48.864;9.200;2022-08-21T16:13:25;31.30;59.20
12119;DHT22;6123;48.864;9.200;2022-08-21T16:15:52;30.90;58.40
12119;DHT22;6123;48.864;9.200;2022-08-21T16:18:19;31.30;58.60
12119;DHT22;6123;48.864;9.200;2022-08-21T16:20:45;31.30;58.20
12119;DHT22;6123;48.864;9.200;2022-08-21T16:23:11;31.60;57.80
12119;DHT22;6123;48.864;9.200;2022-08-21T16:25:37;31.20;58.00
12119;DHT22;6123;48.864;9.200;2022-08-21T16:28:08;31.50;58.90
12119;DHT22;6123;48.864;9.200;2022-08-21T16:30:36;31.40;58.10
12119;DHT22;6123;48.864;9.200;2022-08-21T16:33:04;31.70;58.20
12119;DHT22;6123;48.864;9.200;2022-08-21T16:35:33;31.90;57.70
12119;DHT22;6123;48.864;9.200;2022-08-21T16:38:01;32.10;57.90
12119;DHT22;6123;48.864;9.200;2022-08-21T16:40:27;32.20;57.70
12119;DHT22;6123;48.864;9.200;2022-08-21T16:42:55;32.10;57.70
12119;DHT22;6123;48.864;9.200;2022-08-21T16:45:21;32.40;57.70
12119;DHT22;6123;48.864;9.200;2022-08-21T16:47:47;32.30;56.40
12119;DHT22;6123;48.864;9.200;2022-08-21T16:50:16;32.90;57.10
12119;DHT22;6123;48.864;9.200;2022-08-21T16:52:43;32.70;56.90
12119;DHT22;6123;48.864;9.200;2022-08-21T16:55:11;32.50;56.80
12119;DHT22;6123;48.864;9.200;2022-08-21T16:57:40;33.30;56.80
12119;DHT22;6123;48.864;9.200;2022-08-21T17:00:07;33.60;57.00
12119;DHT22;6123;48.864;9.200;2022-08-21T17:02:48;33.80;56.90
12119;DHT22;6123;48.864;9.200;2022-08-21T17:05:14;33.50;57.30
12119;DHT22;6123;48.864;9.200;2022-08-21T17:07:41;33.90;57.20
12119;DHT22;6123;48.864;9.200;2022-08-21T17:10:08;33.90;56.90
12119;DHT22;6123;48.864;9.200;2022-08-21T17:12:35;33.20;56.90
12119;DHT22;6123;48.864;9.200;2022-08-21T17:15:05;33.40;56.90
12119;DHT22;6123;48.864;9.200;2022-08-21T17:17:33;33.60;57.50
12119;DHT22;6123;48.864;9.200;2022-08-21T17:20:02;33.80;56.80
12119;DHT22;6123;48.864;9.200;2022-08-21T17:22:30;33.10;56.20
12119;DHT22;6123;48.864;9.200;2022-08-21T17:24:56;33.20;56.80
12119;DHT22;6123;48.864;9.200;2022-08-21T17:27:23;32.60;57.10